気象予報士の航空気象 中部の冬の特性

*All archives   *Admin

2010.01.03 (Sun)

中部の冬の特性

 中部空港って、この冬の時期、めちゃ横風吹きまくりでござる。


ひどいときは横風リミットを越えちゃうことも。


 開港すぐに横風と雪が吹き荒れ、大混乱になったことも。


雪が積もると、横風リミットが10ktくらいになるようです。


昔、新聞記事を呼んだ記憶ですが。。。


 さて、3日のお天気は?


RJGG 030400Z 28024KT 9999 FEW030 BKN060 BKN/// 09/M01 Q1009 NOSIG


あら、結構吹いてますよ。


やばいんじゃ。


 なんで、この方向に滑走路作ったんでしょう。


中部の滑走路方向は18/36です。


南北です。




ブログランキングに参加しています。
にほんブログ村 環境ブログ 天気・気象学へ
にほんブログ村
応援クリックをおねがします。


以下、アフィリエイトサイトです。




スポンサーサイト
19:24  |  気象・天気  |  TB(0)  |  CM(0)  |  EDIT  |  Top↑

コメントを投稿する


 管理者だけに表示  (非公開コメント投稿可能)

▲PageTop

この記事のトラックバックURL

→http://weathereucalyptus.blog115.fc2.com/tb.php/350-2ada948a
この記事にトラックバックする(FC2ブログユーザー)

この記事へのトラックバック

▲PageTop

 | BLOGTOP |